Time;durP1;ratioP1;P1;durP2;ratioP2;P2;SDS_P1;SDS_P2;PMS_P1;PMS_P2;Temp;Humidity;BMP_temperature;BMP_pressure;BME280_temperature;BME280_humidity;BME280_pressure;Samples;Min_cycle;Max_cycle;Signal;HPM_P1;HPM_P2
2023/06/17 00:03:32;;;;;;;3.53;2.50;;;;;;;15.36;64.59;97643.34;10531209;28;20393;-69
2023/06/17 00:08:54;;;;;;;3.10;2.47;;;;;;;15.27;64.82;97645.03;10546365;28;20489;-69
2023/06/17 00:14:16;;;;;;;4.22;2.47;;;;;;;15.11;64.85;97633.75;10545792;28;20036;-69
2023/06/17 00:19:37;;;;;;;4.85;2.65;;;;;;;14.97;64.92;97629.53;10545978;28;20115;-69
2023/06/17 00:24:58;;;;;;;2.90;2.47;;;;;;;14.82;65.30;97625.28;10545605;28;20060;-69
2023/06/17 00:30:18;;;;;;;5.13;2.80;;;;;;;14.68;65.67;97619.00;10502243;28;20055;-68
2023/06/17 00:35:40;;;;;;;3.92;2.78;;;;;;;14.53;65.35;97612.66;10545218;28;20060;-69
2023/06/17 00:41:00;;;;;;;4.15;2.90;;;;;;;14.46;66.28;97624.94;10530004;28;20485;-69
2023/06/17 00:46:30;;;;;;;3.80;2.80;;;;;;;14.51;66.36;97609.75;10515650;28;20158;-70
2023/06/17 00:51:51;;;;;;;4.28;2.58;;;;;;;14.63;66.81;97612.44;10516167;28;20175;-69
2023/06/17 00:57:33;;;;;;;4.70;2.60;;;;;;;14.60;66.29;97614.41;10521270;28;20446;-69
2023/06/17 01:02:56;;;;;;;8.25;3.13;;;;;;;14.49;66.67;97623.69;10528057;28;20119;-69
2023/06/17 01:08:28;;;;;;;4.75;2.85;;;;;;;14.50;66.99;97624.44;10528903;28;20106;-69
2023/06/17 01:13:51;;;;;;;5.20;2.93;;;;;;;14.58;67.08;97619.22;10529551;28;20477;-70
2023/06/17 01:19:21;;;;;;;4.97;2.33;;;;;;;14.70;67.25;97611.38;10514679;28;20123;-69
2023/06/17 01:24:43;;;;;;;4.35;2.50;;;;;;;14.78;67.46;97608.25;10515480;28;20422;-69
2023/06/17 01:30:04;;;;;;;3.75;2.55;;;;;;;14.85;67.61;97604.38;10514102;28;20064;-70
2023/06/17 01:35:28;;;;;;;3.72;2.45;;;;;;;14.89;67.52;97604.56;10513820;28;20046;-69
2023/06/17 01:40:51;;;;;;;5.80;2.92;;;;;;;14.90;67.62;97603.22;10527752;28;20158;-69
2023/06/17 01:46:13;;;;;;;3.70;2.60;;;;;;;14.89;67.42;97601.75;10499392;28;20150;-70
2023/06/17 01:51:33;;;;;;;4.22;2.85;;;;;;;14.91;67.75;97593.44;10513153;28;20108;-69
2023/06/17 01:56:54;;;;;;;4.35;2.40;;;;;;;14.89;68.01;97590.53;10512810;28;20059;-69
2023/06/17 02:02:15;;;;;;;4.65;2.83;;;;;;;14.89;68.16;97596.16;10526706;28;20075;-69
2023/06/17 02:07:35;;;;;;;3.88;2.45;;;;;;;14.91;67.98;97582.19;10512631;28;20378;-69
2023/06/17 02:12:56;;;;;;;3.47;2.63;;;;;;;14.97;67.90;97590.91;10511649;28;20115;-70
2023/06/17 02:18:17;;;;;;;3.53;2.63;;;;;;;14.97;67.91;97602.16;10512305;28;20066;-70
2023/06/17 02:23:38;;;;;;;3.10;2.33;;;;;;;14.98;67.65;97609.22;10526046;28;20158;-69
2023/06/17 02:28:58;;;;;;;4.60;2.40;;;;;;;14.93;67.92;97596.31;10511793;28;20151;-70
2023/06/17 02:34:19;;;;;;;3.70;2.70;;;;;;;14.94;68.05;97600.59;10498005;28;20103;-68
2023/06/17 02:39:40;;;;;;;4.47;2.85;;;;;;;14.92;67.94;97588.53;10511582;28;20114;-70
2023/06/17 02:45:01;;;;;;;5.68;2.88;;;;;;;14.89;67.90;97585.63;10511361;28;20488;-70
2023/06/17 02:50:23;;;;;;;5.13;2.78;;;;;;;14.89;67.90;97584.91;10510863;28;20170;-69
2023/06/17 02:55:45;;;;;;;3.67;2.45;;;;;;;14.87;67.92;97584.81;10511470;28;20129;-70
2023/06/17 03:01:12;;;;;;;4.35;2.70;;;;;;;14.84;68.06;97591.66;10511365;28;20442;-70
2023/06/17 03:06:37;;;;;;;3.33;2.53;;;;;;;14.81;68.09;97593.66;10497616;28;20112;-70
2023/06/17 03:12:02;;;;;;;4.03;2.70;;;;;;;14.77;68.03;97596.28;10524123;28;20132;-69
2023/06/17 03:17:24;;;;;;;3.47;2.38;;;;;;;14.72;68.04;97605.13;10496913;28;20115;-69
2023/06/17 03:22:47;;;;;;;4.18;2.75;;;;;;;14.69;68.22;97595.16;10525934;28;20121;-69
2023/06/17 03:28:08;;;;;;;4.05;2.22;;;;;;;14.67;68.42;97600.66;10519433;28;20116;-69
2023/06/17 03:33:29;;;;;;;4.15;2.50;;;;;;;14.70;68.47;97594.53;10518893;28;20112;-68
2023/06/17 03:38:50;;;;;;;4.10;2.85;;;;;;;14.69;68.34;97597.97;10504555;28;20123;-69
2023/06/17 03:44:11;;;;;;;2.85;2.28;;;;;;;14.63;68.38;97598.38;10504442;28;20085;-69
2023/06/17 03:49:32;;;;;;;5.68;2.35;;;;;;;14.60;68.60;97596.84;10504029;28;20111;-68
2023/06/17 03:54:54;;;;;;;3.72;2.58;;;;;;;14.64;68.63;97593.50;10507641;28;20044;-69
2023/06/17 04:00:15;;;;;;;2.83;2.13;;;;;;;14.81;68.43;97602.09;10531863;28;20150;-69
2023/06/17 04:05:37;;;;;;;3.75;2.33;;;;;;;14.85;68.03;97602.28;10517346;28;20123;-69
2023/06/17 04:11:01;;;;;;;4.03;2.15;;;;;;;14.93;67.73;97593.50;10531124;28;20189;-69
2023/06/17 04:16:21;;;;;;;6.05;2.33;;;;;;;15.16;67.79;97598.84;10531014;28;20035;-69
2023/06/17 04:21:42;;;;;;;4.45;2.33;;;;;;;15.39;67.30;97595.00;10530862;28;20044;-70
2023/06/17 04:27:05;;;;;;;2.85;2.28;;;;;;;15.71;67.12;97601.38;10502771;28;20052;-69
2023/06/17 04:32:27;;;;;;;2.85;2.08;;;;;;;16.42;66.20;97606.59;10516766;28;20066;-70
2023/06/17 04:37:53;;;;;;;4.90;2.40;;;;;;;16.73;65.09;97610.72;10502828;28;20107;-70
2023/06/17 04:43:15;;;;;;;3.38;2.22;;;;;;;16.81;64.23;97611.78;10516775;28;20517;-69
2023/06/17 04:48:37;;;;;;;3.05;1.83;;;;;;;16.92;63.54;97601.63;10529811;28;20107;-69
2023/06/17 04:53:57;;;;;;;2.67;2.15;;;;;;;17.01;63.64;97609.06;10529483;28;20060;-70
2023/06/17 04:59:19;;;;;;;2.85;1.95;;;;;;;17.11;63.07;97611.56;10515329;28;20119;-70
2023/06/17 05:04:40;;;;;;;3.78;2.20;;;;;;;17.20;62.79;97618.97;10528946;28;20178;-69
2023/06/17 05:10:02;;;;;;;4.43;1.70;;;;;;;17.34;62.42;97611.03;10529091;28;20046;-69
2023/06/17 05:15:25;;;;;;;3.10;2.33;;;;;;;17.50;61.65;97605.31;10501684;28;20047;-69
2023/06/17 05:20:47;;;;;;;2.30;1.80;;;;;;;17.73;61.33;97610.44;10528522;28;20430;-69
2023/06/17 05:26:09;;;;;;;4.80;2.05;;;;;;;17.97;60.48;97599.34;10514626;28;20042;-69
2023/06/17 05:31:30;;;;;;;3.65;2.40;;;;;;;18.84;59.99;97612.25;10513823;28;20450;-69
2023/06/17 05:36:52;;;;;;;2.50;1.98;;;;;;;20.04;56.92;97613.09;10500354;28;20161;-69
2023/06/17 05:42:14;;;;;;;2.78;1.95;;;;;;;20.26;54.81;97621.47;10500203;28;20472;-69
2023/06/17 05:47:36;;;;;;;3.45;1.90;;;;;;;20.50;54.12;97627.13;10526517;28;20541;-69
2023/06/17 05:52:57;;;;;;;2.80;2.08;;;;;;;20.67;53.29;97616.94;10542396;28;20040;-69
2023/06/17 05:58:18;;;;;;;3.13;2.08;;;;;;;21.23;52.14;97623.31;10526863;28;20161;-69
2023/06/17 06:03:50;;;;;;;2.20;1.52;;;;;;;20.91;50.80;97639.50;10526534;28;20075;-69
2023/06/17 06:09:11;;;;;;;2.53;2.08;;;;;;;20.75;50.77;97629.22;10541840;28;20032;-69
2023/06/17 06:14:32;;;;;;;3.17;2.10;;;;;;;21.88;49.67;97638.97;10526329;28;20094;-69
2023/06/17 06:19:54;;;;;;;3.10;1.95;;;;;;;22.84;48.08;97635.19;10525875;28;20040;-69
2023/06/17 06:25:14;;;;;;;6.18;2.42;;;;;;;23.85;45.70;97635.38;10497916;28;20040;-69
2023/06/17 06:30:35;;;;;;;3.53;2.10;;;;;;;23.65;44.30;97647.19;10525623;28;20036;-69
2023/06/17 06:35:56;;;;;;;2.20;1.70;;;;;;;23.72;44.15;97645.84;10525526;28;20039;-69
2023/06/17 06:41:19;;;;;;;4.35;2.00;;;;;;;23.57;43.48;97653.47;10511644;28;20475;-69
2023/06/17 06:46:50;;;;;;;3.25;1.83;;;;;;;24.76;42.75;97647.84;10512490;28;20048;-70
2023/06/17 06:52:12;;;;;;;4.33;2.30;;;;;;;25.88;41.13;97651.66;10510995;28;20375;-69
2023/06/17 06:57:33;;;;;;;4.65;2.25;;;;;;;26.62;39.04;97640.50;10525017;28;20064;-70
2023/06/17 07:02:56;;;;;;;4.07;2.30;;;;;;;27.37;38.27;97649.19;10539950;28;20079;-70
2023/06/17 07:08:18;;;;;;;4.97;2.97;;;;;;;27.94;36.59;97652.00;10524616;28;20414;-70
2023/06/17 07:13:41;;;;;;;5.22;3.28;;;;;;;28.70;34.27;97644.53;10510983;28;20480;-70
2023/06/17 07:19:03;;;;;;;6.63;3.00;;;;;;;29.54;32.94;97646.81;10539550;28;20111;-69
2023/06/17 07:24:24;;;;;;;3.05;2.53;;;;;;;30.66;32.22;97642.69;10510549;28;20047;-70
2023/06/17 07:29:45;;;;;;;4.20;2.77;;;;;;;30.13;30.93;97649.09;10509883;28;20040;-70
2023/06/17 07:35:07;;;;;;;3.95;2.60;;;;;;;29.34;32.05;97641.94;10539162;28;20492;-70
2023/06/17 07:40:28;;;;;;;3.47;2.50;;;;;;;28.32;31.82;97648.31;10496101;28;20047;-70
2023/06/17 07:45:50;;;;;;;7.83;2.43;;;;;;;28.67;32.00;97646.00;10523941;28;20098;-70
2023/06/17 07:51:11;;;;;;;7.75;2.60;;;;;;;29.23;31.23;97644.16;10538795;28;20108;-69
2023/06/17 07:56:32;;;;;;;3.13;2.33;;;;;;;30.57;30.62;97644.94;10510070;28;20382;-69
2023/06/17 08:01:54;;;;;;;3.28;2.53;;;;;;;31.11;29.29;97647.81;10523912;28;20052;-70
2023/06/17 08:07:15;;;;;;;4.18;2.60;;;;;;;30.83;29.36;97649.66;10523499;28;20036;-70
2023/06/17 08:12:37;;;;;;;6.88;2.92;;;;;;;30.77;29.33;97641.78;10517191;28;20040;-70
2023/06/17 08:17:58;;;;;;;3.92;2.53;;;;;;;31.27;28.70;97638.94;10531212;28;20032;-71
2023/06/17 08:23:20;;;;;;;5.25;3.67;;;;;;;30.83;27.30;97634.53;10531076;28;20115;-70
2023/06/17 08:28:41;;;;;;;2.60;2.40;;;;;;;31.11;28.86;97639.16;10545613;28;20088;-70
2023/06/17 08:34:02;;;;;;;;;;;;;;;31.61;27.47;97632.53;10530698;28;20114;-70
2023/06/17 08:39:24;;;;;;;4.13;3.00;;;;;;;31.84;27.21;97637.91;10530182;28;19916;-70
2023/06/17 08:44:45;;;;;;;6.47;2.65;;;;;;;32.35;27.58;97625.41;10545011;28;20044;-70
2023/06/17 08:50:07;;;;;;;3.08;2.63;;;;;;;32.02;26.07;97626.03;10516112;28;20032;-70
2023/06/17 08:55:30;;;;;;;4.25;2.97;;;;;;;31.60;26.40;97613.81;10516038;28;20043;-70
2023/06/17 09:00:51;;;;;;;3.85;2.65;;;;;;;32.14;26.36;97616.44;10544403;28;20158;-70
2023/06/17 09:06:15;;;;;;;;;;;;;;;32.79;25.47;97611.44;10501674;28;20119;-70
2023/06/17 09:11:36;;;;;;;4.90;2.83;;;;;;;33.04;25.25;97594.97;10502003;28;20015;-70
2023/06/17 09:17:00;;;;;;;5.13;2.88;;;;;;;32.80;24.77;97599.09;10473123;28;20467;-71
2023/06/17 09:22:26;;;;;;;5.43;3.00;;;;;;;33.44;24.61;97586.75;10485918;28;20041;-71
2023/06/17 09:27:51;;;;;;;5.45;2.70;;;;;;;33.96;23.42;97572.31;10473020;28;20189;-71
2023/06/17 09:33:19;;;;;;;4.05;2.28;;;;;;;33.47;22.88;97567.84;10473185;28;20083;-70
2023/06/17 09:38:41;;;;;;;5.07;2.70;;;;;;;32.60;23.64;97568.50;10485996;28;20094;-70
2023/06/17 09:44:01;;;;;;;2.97;2.50;;;;;;;32.50;23.71;97556.47;10485962;28;20403;-70
2023/06/17 09:49:23;;;;;;;5.60;2.70;;;;;;;32.23;24.14;97545.47;10457654;28;20064;-72
2023/06/17 09:54:45;;;;;;;6.60;2.63;;;;;;;32.15;24.35;97537.72;10485677;28;20094;-71
2023/06/17 10:00:10;;;;;;;3.25;2.95;;;;;;;31.79;24.63;97530.53;10499885;28;20044;-71
2023/06/17 10:05:31;;;;;;;4.97;2.58;;;;;;;30.52;25.43;97544.97;10522442;28;20052;-71
2023/06/17 10:10:52;;;;;;;11.07;2.63;;;;;;;28.42;26.84;97553.53;10526471;28;20036;-71
2023/06/17 10:16:15;;;;;;;6.38;1.90;;;;;;;24.77;31.61;97583.66;10526121;28;20488;-70
2023/06/17 10:21:39;;;;;;;7.93;2.63;;;;;;;22.44;35.20;97578.28;10526406;28;20154;-69
2023/06/17 10:27:05;;;;;;;8.15;2.80;;;;;;;21.54;37.24;97579.31;10518620;28;20036;-69
2023/06/17 10:32:26;;;;;;;5.68;2.78;;;;;;;21.30;39.38;97570.97;10497481;28;20040;-69
2023/06/17 10:37:48;;;;;;;4.20;3.00;;;;;;;22.21;41.54;97566.50;10525217;28;20036;-69
2023/06/17 10:43:09;;;;;;;6.72;3.03;;;;;;;23.53;42.66;97550.13;10511381;28;20503;-68
2023/06/17 10:48:35;;;;;;;7.03;3.08;;;;;;;25.45;41.94;97550.63;10524313;28;20036;-69
2023/06/17 10:53:56;;;;;;;6.97;3.03;;;;;;;26.93;40.60;97550.38;10510866;28;20040;-70
2023/06/17 10:59:25;;;;;;;3.67;2.47;;;;;;;28.80;37.81;97549.69;10525155;28;20081;-70
2023/06/17 11:04:48;;;;;;;8.50;2.70;;;;;;;29.72;36.52;97553.88;10524706;28;20055;-70
2023/06/17 11:10:09;;;;;;;6.05;3.08;;;;;;;29.52;34.81;97549.06;10524567;28;20060;-69
2023/06/17 11:15:30;;;;;;;4.27;2.60;;;;;;;30.26;32.61;97546.03;10510930;28;20047;-70
2023/06/17 11:20:51;;;;;;;5.38;3.42;;;;;;;30.46;32.29;97540.69;10524558;28;20493;-70
2023/06/17 11:26:12;;;;;;;4.60;2.80;;;;;;;30.14;31.90;97526.78;10539482;28;20032;-70
2023/06/17 11:31:36;;;;;;;3.75;2.85;;;;;;;29.80;31.57;97525.03;10510686;28;20032;-69
2023/06/17 11:37:00;;;;;;;4.53;2.75;;;;;;;29.87;30.50;97526.38;10510578;28;20044;-70
2023/06/17 11:42:20;;;;;;;4.10;2.67;;;;;;;29.77;31.30;97512.84;10524435;28;20040;-70
2023/06/17 11:47:41;;;;;;;4.50;2.73;;;;;;;29.50;31.43;97518.19;10547228;28;20458;-70
2023/06/17 11:53:02;;;;;;;3.57;2.33;;;;;;;29.16;30.71;97512.78;10532251;28;20047;-70
2023/06/17 11:58:25;;;;;;;3.70;2.87;;;;;;;28.23;30.52;97543.59;10531774;28;20093;-71
2023/06/17 12:03:46;;;;;;;10.27;3.40;;;;;;;26.32;31.89;97566.72;10518043;28;20079;-70
2023/06/17 12:09:08;;;;;;;6.95;3.30;;;;;;;24.99;34.21;97548.13;10546564;28;20458;-69
2023/06/17 12:14:29;;;;;;;6.25;3.10;;;;;;;24.70;35.96;97539.34;10531229;28;20036;-70
2023/06/17 12:19:50;;;;;;;6.80;3.17;;;;;;;25.68;36.33;97537.19;10502690;28;20382;-69
2023/06/17 12:25:11;;;;;;;4.95;3.10;;;;;;;26.64;36.16;97560.38;10530937;28;20118;-69
2023/06/17 12:30:33;;;;;;;5.13;3.42;;;;;;;26.01;37.20;97534.47;10516630;28;20038;-69
2023/06/17 12:35:54;;;;;;;6.43;3.40;;;;;;;25.94;38.05;97531.56;10545181;28;20055;-69
2023/06/17 12:41:17;;;;;;;8.73;3.83;;;;;;;26.86;38.80;97528.88;10517051;28;20067;-69
2023/06/17 12:46:40;;;;;;;3.33;2.60;;;;;;;27.81;38.22;97530.88;10529984;28;20036;-70
2023/06/17 12:52:02;;;;;;;3.13;2.72;;;;;;;27.75;37.46;97550.97;10516012;28;20386;-70
2023/06/17 12:57:23;;;;;;;5.45;3.28;;;;;;;26.82;38.70;97535.31;10544300;28;20118;-69
2023/06/17 13:02:44;;;;;;;5.45;3.80;;;;;;;26.59;41.52;97525.31;10515570;28;20079;-70
2023/06/17 13:08:05;;;;;;;5.87;3.47;;;;;;;26.33;42.78;97530.97;10501299;28;20051;-70
2023/06/17 13:13:27;;;;;;;4.87;3.30;;;;;;;26.74;41.50;97531.75;10514725;28;20036;-70
2023/06/17 13:18:48;;;;;;;4.85;3.40;;;;;;;26.04;41.03;97533.03;10543935;28;20085;-69
2023/06/17 13:24:10;;;;;;;5.57;3.38;;;;;;;24.99;42.54;97542.44;10514665;28;20060;-70
2023/06/17 13:29:31;;;;;;;4.45;3.67;;;;;;;24.21;44.52;97533.16;10543386;28;20040;-69
2023/06/17 13:34:53;;;;;;;5.85;3.80;;;;;;;24.45;46.03;97524.16;10514031;28;20036;-69
2023/06/17 13:40:15;;;;;;;5.53;3.63;;;;;;;24.32;45.74;97501.91;10528015;28;20040;-69
2023/06/17 13:45:36;;;;;;;8.27;4.10;;;;;;;23.69;46.62;97504.78;10527657;28;20066;-69
2023/06/17 13:50:57;;;;;;;8.10;4.30;;;;;;;23.43;47.79;97519.38;10499438;28;20089;-69
2023/06/17 13:56:19;;;;;;;8.87;4.50;;;;;;;22.74;48.06;97524.03;10527419;28;20043;-69
2023/06/17 14:01:40;;;;;;;7.57;5.33;;;;;;;21.69;50.73;97535.59;10526875;28;20059;-69
2023/06/17 14:07:34;;;;;;;8.65;5.40;;;;;;;20.44;60.53;97556.09;10512554;28;20497;-69
2023/06/17 14:12:55;;;;;;;8.23;5.65;;;;;;;19.61;60.79;97549.56;10541797;28;20074;-69
2023/06/17 14:18:15;;;;;;;9.70;5.65;;;;;;;19.56;63.26;97552.94;10512512;28;20111;-69
2023/06/17 14:23:51;;;;;;;10.45;5.68;;;;;;;19.20;64.25;97549.69;10512572;28;20059;-69
2023/06/17 14:29:12;;;;;;;12.35;5.97;;;;;;;18.68;66.38;97546.66;10499047;28;20165;-69
2023/06/17 14:34:33;;;;;;;6.60;5.07;;;;;;;18.71;67.68;97559.47;10540924;28;20123;-68
2023/06/17 14:39:53;;;;;;;9.10;6.05;;;;;;;19.30;67.26;97564.91;10540984;28;20115;-69
2023/06/17 14:45:15;;;;;;;8.77;5.25;;;;;;;19.42;66.35;97575.88;10483693;28;20497;-69
2023/06/17 14:50:36;;;;;;;9.45;5.75;;;;;;;19.47;66.40;97571.75;10525458;28;20047;-68
2023/06/17 14:56:31;;;;;;;8.98;5.40;;;;;;;19.71;66.29;97574.63;10540129;28;20071;-69
2023/06/17 15:01:51;;;;;;;10.20;5.72;;;;;;;19.07;66.15;97566.31;10524609;28;20152;-68
2023/06/17 15:07:12;;;;;;;8.52;5.63;;;;;;;18.60;67.94;97590.22;10510774;28;20063;-69
2023/06/17 15:12:33;;;;;;;11.30;5.70;;;;;;;18.20;69.08;97583.19;10539630;28;20036;-70
2023/06/17 15:17:54;;;;;;;10.57;6.10;;;;;;;17.97;70.72;97592.97;10509792;28;20284;-69
2023/06/17 15:23:15;;;;;;;12.77;7.22;;;;;;;18.02;72.10;97615.03;10510494;28;20064;-69
2023/06/17 15:28:36;;;;;;;7.47;3.20;;;;;;;17.80;68.65;97515.41;10510729;28;20070;-69
2023/06/17 15:33:58;;;;;;;5.45;3.35;;;;;;;18.08;68.68;97582.75;10510319;28;20060;-70
2023/06/17 15:39:20;;;;;;;7.30;3.90;;;;;;;18.99;66.60;97585.13;10510163;28;20090;-69
2023/06/17 15:44:41;;;;;;;6.57;4.78;;;;;;;19.12;66.17;97596.19;10510377;28;20634;-69
2023/06/17 15:50:02;;;;;;;6.53;5.28;;;;;;;19.42;65.70;97584.34;10523794;28;20036;-69
2023/06/17 15:55:23;;;;;;;7.82;4.32;;;;;;;19.90;65.86;97585.09;10495783;28;20055;-70
2023/06/17 16:00:44;;;;;;;7.07;4.93;;;;;;;19.95;64.56;97569.63;10523649;28;20111;-70
2023/06/17 16:06:05;;;;;;;7.82;4.55;;;;;;;19.59;64.95;97563.69;10467975;28;20043;-69
2023/06/17 16:11:25;;;;;;;7.75;4.63;;;;;;;19.23;65.22;97560.44;10467775;28;20036;-70
2023/06/17 16:16:46;;;;;;;8.20;5.22;;;;;;;19.27;65.71;97557.00;10467494;28;20041;-69
2023/06/17 16:22:09;;;;;;;9.75;4.97;;;;;;;18.92;66.31;97564.44;10481562;28;20051;-70
2023/06/17 16:27:35;;;;;;;7.57;4.00;;;;;;;18.48;66.37;97567.19;10467396;28;20043;-69
2023/06/17 16:32:56;;;;;;;6.95;4.43;;;;;;;18.56;67.33;97578.06;10473995;28;20379;-69
2023/06/17 16:38:17;;;;;;;7.70;4.22;;;;;;;18.77;66.80;97571.72;10488430;28;20064;-69
2023/06/17 16:43:38;;;;;;;6.28;3.58;;;;;;;18.93;66.44;97579.28;10488234;28;20488;-69
2023/06/17 16:48:59;;;;;;;7.35;3.30;;;;;;;19.14;65.94;97587.75;10474020;28;20041;-69
2023/06/17 16:54:20;;;;;;;5.60;3.65;;;;;;;19.54;64.89;97579.06;10473837;28;20058;-69
2023/06/17 16:59:41;;;;;;;6.28;4.13;;;;;;;19.64;63.34;97582.22;10459976;28;20044;-69
2023/06/17 17:05:02;;;;;;;6.20;3.90;;;;;;;19.45;63.40;97583.03;10520305;28;20489;-69
2023/06/17 17:10:23;;;;;;;4.72;3.65;;;;;;;19.45;63.69;97594.34;10529406;28;20478;-69
2023/06/17 17:15:44;;;;;;;5.63;4.00;;;;;;;19.44;63.33;97619.09;10528902;28;20549;-69
2023/06/17 17:21:05;;;;;;;8.02;4.38;;;;;;;19.37;63.74;97620.28;10528608;28;20386;-69
2023/06/17 17:26:26;;;;;;;8.93;4.45;;;;;;;19.71;63.58;97608.59;10514559;28;20040;-69
2023/06/17 17:31:47;;;;;;;4.70;3.80;;;;;;;20.01;62.05;97614.41;10527930;28;20039;-69
2023/06/17 17:37:08;;;;;;;5.65;3.95;;;;;;;20.22;63.12;97633.44;10514031;28;20047;-69
2023/06/17 17:42:29;;;;;;;5.72;4.45;;;;;;;20.45;62.84;97646.13;10498891;28;20466;-69
2023/06/17 17:47:50;;;;;;;5.70;4.45;;;;;;;20.47;62.61;97602.97;10542852;28;20039;-68
2023/06/17 17:53:11;;;;;;;6.47;4.70;;;;;;;20.64;62.59;97621.81;10542426;28;20084;-69
2023/06/17 17:58:33;;;;;;;6.07;4.80;;;;;;;20.41;62.86;97614.09;10527419;28;20047;-68
2023/06/17 18:03:54;;;;;;;7.80;5.57;;;;;;;19.91;62.96;97617.69;10542285;28;20067;-69
2023/06/17 18:09:14;;;;;;;9.73;5.68;;;;;;;19.40;64.14;97629.59;10512827;28;20036;-69
2023/06/17 18:14:35;;;;;;;8.07;5.88;;;;;;;19.21;65.85;97622.63;10526293;28;20043;-68
2023/06/17 18:19:56;;;;;;;6.82;5.03;;;;;;;19.25;66.31;97619.19;10541263;28;20687;-68
2023/06/17 18:25:17;;;;;;;8.18;5.13;;;;;;;19.53;66.08;97614.41;10512174;28;20040;-69
2023/06/17 18:30:37;;;;;;;8.55;5.72;;;;;;;19.29;66.31;97624.97;10511778;28;20036;-68
2023/06/17 18:35:58;;;;;;;11.38;5.30;;;;;;;18.82;67.12;97610.06;10540817;28;20082;-69
2023/06/17 18:41:19;;;;;;;8.43;6.05;;;;;;;18.51;67.85;97613.19;10497661;28;20071;-68
2023/06/17 18:46:40;;;;;;;36.22;16.25;;;;;;;18.25;68.64;97607.38;10510994;28;20055;-69
2023/06/17 18:52:00;;;;;;;17.30;9.00;;;;;;;18.03;69.15;97601.63;10525469;28;20063;-69
2023/06/17 18:57:21;;;;;;;43.80;18.38;;;;;;;17.82;69.45;97610.75;10539921;28;20118;-69
2023/06/17 19:02:42;;;;;;;9.20;6.32;;;;;;;17.67;69.79;97603.84;10510655;28;20072;-69
2023/06/17 19:08:03;;;;;;;8.55;5.63;;;;;;;17.46;70.39;97614.34;10510402;28;20055;-68
2023/06/17 19:13:24;;;;;;;7.65;5.70;;;;;;;17.16;71.18;97613.88;10539583;28;20075;-69
2023/06/17 19:18:44;;;;;;;8.50;5.75;;;;;;;16.95;71.42;97630.63;10524505;28;20457;-69
2023/06/17 19:24:05;;;;;;;8.95;5.32;;;;;;;16.82;72.08;97621.69;10524150;28;20059;-69
2023/06/17 19:29:26;;;;;;;9.23;5.63;;;;;;;16.74;72.70;97634.72;10539209;28;20110;-71
2023/06/17 19:34:46;;;;;;;8.85;5.32;;;;;;;16.68;72.96;97642.88;10538857;28;20114;-69
2023/06/17 19:40:08;;;;;;;5.97;5.28;;;;;;;16.48;73.50;97654.00;10539091;28;20056;-68
2023/06/17 19:45:29;;;;;;;11.57;5.40;;;;;;;16.31;73.91;97650.50;10510161;28;20119;-69
2023/06/17 19:50:50;;;;;;;6.47;5.10;;;;;;;16.22;74.74;97657.16;10523976;28;20036;-69
2023/06/17 19:56:12;;;;;;;7.75;5.13;;;;;;;16.18;74.69;97659.78;10523965;28;20458;-68
2023/06/17 20:01:32;;;;;;;8.48;5.78;;;;;;;16.11;75.28;97665.78;10523641;28;20076;-69
2023/06/17 20:06:53;;;;;;;8.80;5.57;;;;;;;16.02;75.32;97665.44;10528455;28;20040;-69
2023/06/17 20:12:14;;;;;;;6.90;5.22;;;;;;;15.90;76.03;97661.31;10531100;28;20135;-68
2023/06/17 20:17:34;;;;;;;8.80;5.43;;;;;;;15.83;76.00;97656.78;10517462;28;20071;-67
2023/06/17 20:22:55;;;;;;;8.20;6.13;;;;;;;15.69;76.50;97649.13;10516732;28;20501;-68
2023/06/17 20:28:16;;;;;;;8.65;5.93;;;;;;;15.64;76.75;97653.13;10545833;28;20109;-68
2023/06/17 20:33:37;;;;;;;7.15;5.10;;;;;;;15.63;77.30;97650.94;10530436;28;20040;-67
2023/06/17 20:38:59;;;;;;;8.70;5.60;;;;;;;15.69;77.73;97645.59;10545317;28;20109;-68
2023/06/17 20:44:20;;;;;;;7.50;5.20;;;;;;;15.70;77.54;97647.78;10515779;28;20063;-68
2023/06/17 20:49:41;;;;;;;7.45;5.45;;;;;;;15.64;78.02;97644.69;10515862;28;20048;-69
2023/06/17 20:55:02;;;;;;;6.10;4.88;;;;;;;15.64;77.88;97641.16;10515703;28;20044;-67
2023/06/17 21:00:22;;;;;;;8.00;5.40;;;;;;;15.70;77.76;97644.25;10515268;28;20036;-69
2023/06/17 21:05:43;;;;;;;6.75;4.93;;;;;;;15.67;78.21;97651.88;10528995;28;20530;-68
2023/06/17 21:11:04;;;;;;;5.80;4.75;;;;;;;15.60;77.99;97646.56;10544074;28;20056;-68
2023/06/17 21:16:25;;;;;;;7.32;5.07;;;;;;;15.61;78.82;97648.75;10528759;28;20063;-69
2023/06/17 21:21:46;;;;;;;13.93;5.95;;;;;;;15.55;78.57;97651.28;10500850;28;20111;-69
2023/06/17 21:27:09;;;;;;;8.05;5.40;;;;;;;15.53;78.92;97653.97;10514238;28;20056;-68
2023/06/17 21:32:29;;;;;;;8.60;5.45;;;;;;;15.52;79.17;97652.53;10528254;28;20063;-69
2023/06/17 21:37:50;;;;;;;7.13;5.57;;;;;;;15.48;79.36;97662.88;10514049;28;20111;-68
2023/06/17 21:43:11;;;;;;;8.98;5.47;;;;;;;15.47;79.98;97662.16;10527998;28;20446;-68
2023/06/17 21:48:32;;;;;;;6.13;5.00;;;;;;;15.49;79.54;97658.69;10527412;28;20470;-68
2023/06/17 21:53:53;;;;;;;6.32;5.18;;;;;;;15.51;79.96;97662.34;10527129;28;20492;-68
2023/06/17 21:59:13;;;;;;;7.75;5.55;;;;;;;15.41;79.62;97661.84;10513302;28;20158;-68
2023/06/17 22:04:34;;;;;;;7.10;5.75;;;;;;;15.28;80.05;97668.28;10541944;28;20543;-68
2023/06/17 22:09:57;;;;;;;7.70;5.65;;;;;;;15.23;80.40;97656.09;10526878;28;20465;-68
2023/06/17 22:15:18;;;;;;;9.10;5.95;;;;;;;15.22;80.62;97659.53;10526477;28;20044;-68
2023/06/17 22:20:38;;;;;;;7.00;5.72;;;;;;;15.16;81.28;97657.91;10541717;28;20111;-68
2023/06/17 22:25:59;;;;;;;9.75;6.47;;;;;;;15.18;81.10;97657.25;10498001;28;20518;-69
2023/06/17 22:31:20;;;;;;;7.32;5.88;;;;;;;15.10;80.74;97659.69;10525308;28;20043;-68
2023/06/17 22:36:41;;;;;;;8.75;6.47;;;;;;;14.95;81.15;97661.06;10497356;28;20119;-68
2023/06/17 22:42:01;;;;;;;7.75;5.85;;;;;;;14.85;81.69;97654.94;10511650;28;20453;-68
2023/06/17 22:47:22;;;;;;;8.73;6.15;;;;;;;14.74;81.60;97661.41;10540561;28;20587;-68
2023/06/17 22:52:42;;;;;;;8.25;6.57;;;;;;;14.64;82.08;97660.91;10497227;28;20067;-68
2023/06/17 22:58:03;;;;;;;11.02;7.10;;;;;;;14.54;82.43;97645.00;10511231;28;20060;-68
2023/06/17 23:03:24;;;;;;;8.95;7.43;;;;;;;14.46;82.47;97646.66;10597839;22;20081;-68
2023/06/17 23:08:44;;;;;;;11.77;7.43;;;;;;;14.38;82.72;97646.97;10608726;27;20118;-68
2023/06/17 23:14:05;;;;;;;9.95;7.47;;;;;;;14.32;82.83;97643.84;10594537;27;20071;-68
2023/06/17 23:19:26;;;;;;;10.90;8.00;;;;;;;14.31;83.47;97642.41;10594274;27;20118;-67
2023/06/17 23:24:46;;;;;;;11.15;7.00;;;;;;;14.30;83.78;97640.94;10623660;27;20172;-68
2023/06/17 23:30:08;;;;;;;9.60;7.50;;;;;;;14.26;83.70;97643.53;10608378;28;20043;-68
2023/06/17 23:35:29;;;;;;;9.82;7.50;;;;;;;14.27;83.86;97637.28;10608259;28;20482;-67
2023/06/17 23:40:49;;;;;;;9.85;7.50;;;;;;;14.24;83.83;97638.53;10611868;27;20039;-68
2023/06/17 23:46:10;;;;;;;10.43;7.38;;;;;;;14.19;84.24;97638.97;10602244;27;20059;-67
2023/06/17 23:51:31;;;;;;;10.40;7.70;;;;;;;14.16;84.44;97638.13;10602810;27;20168;-67
2023/06/17 23:56:52;;;;;;;12.25;8.10;;;;;;;14.11;84.81;97642.09;10616423;27;20070;-68
